createdAt,value
2019-02-10T00:01:09.663Z,1.03
2019-02-10T00:03:38.384Z,1.40
2019-02-10T00:06:07.360Z,1.70
2019-02-10T00:08:38.693Z,1.63
2019-02-10T00:11:07.375Z,0.93
2019-02-10T00:13:37.660Z,1.23
2019-02-10T00:16:11.821Z,0.90
2019-02-10T00:18:40.567Z,1.13
2019-02-10T00:21:09.268Z,1.33
2019-02-10T00:23:37.956Z,1.03
2019-02-10T00:26:06.735Z,1.20
2019-02-10T00:28:35.601Z,2.60
2019-02-10T00:31:05.373Z,1.20
2019-02-10T00:33:34.126Z,1.43
2019-02-10T00:36:03.089Z,1.80
2019-02-10T00:38:31.990Z,1.47
2019-02-10T00:41:00.838Z,1.23
2019-02-10T00:43:29.798Z,1.33
2019-02-10T00:45:58.654Z,1.60
2019-02-10T00:48:27.317Z,1.33
2019-02-10T00:50:58.533Z,1.23
2019-02-10T00:53:30.714Z,1.77
2019-02-10T00:56:02.561Z,1.33
2019-02-10T00:58:31.286Z,2.40
2019-02-10T01:00:59.960Z,1.03
2019-02-10T01:03:28.677Z,1.33
2019-02-10T01:05:57.476Z,0.97
2019-02-10T01:08:26.391Z,1.67
2019-02-10T01:10:55.067Z,1.57
2019-02-10T01:13:24.003Z,1.60
2019-02-10T01:15:52.761Z,1.30
2019-02-10T01:18:21.450Z,1.50
2019-02-10T01:20:50.193Z,1.60
2019-02-10T01:23:19.289Z,2.00
2019-02-10T01:25:48.036Z,1.17
2019-02-10T01:28:17.014Z,1.10
2019-02-10T01:30:46.014Z,1.13
2019-02-10T01:33:14.681Z,1.77
2019-02-10T01:35:43.396Z,1.60
2019-02-10T01:38:12.066Z,1.43
2019-02-10T01:40:40.766Z,1.90
2019-02-10T01:43:09.462Z,2.03
2019-02-10T01:45:38.450Z,1.37
2019-02-10T01:48:08.045Z,1.57
2019-02-10T01:50:37.265Z,1.23
2019-02-10T01:53:05.954Z,1.70
2019-02-10T01:55:34.661Z,1.60
2019-02-10T01:58:03.393Z,1.20
2019-02-10T02:00:35.476Z,1.60
2019-02-10T02:03:04.138Z,1.10
2019-02-10T02:05:33.119Z,2.03
2019-02-10T02:08:04.707Z,1.23
2019-02-10T02:10:33.406Z,1.50
2019-02-10T02:13:02.237Z,1.50
2019-02-10T02:15:31.031Z,1.30
2019-02-10T02:17:59.738Z,2.13
2019-02-10T02:20:28.679Z,1.43
2019-02-10T02:22:59.808Z,1.35
2019-02-10T02:25:28.494Z,1.27
2019-02-10T02:27:57.668Z,1.33
2019-02-10T02:30:26.355Z,1.17
2019-02-10T02:32:55.219Z,1.40
2019-02-10T02:35:24.236Z,1.30
2019-02-10T02:37:53.412Z,1.50
2019-02-10T02:40:22.109Z,1.53
2019-02-10T02:42:51.302Z,1.73
2019-02-10T02:45:19.983Z,0.90
2019-02-10T02:47:48.642Z,0.93
2019-02-10T02:50:17.523Z,1.83
2019-02-10T02:52:46.180Z,1.03
2019-02-10T02:55:15.143Z,1.33
2019-02-10T02:57:44.047Z,1.93
2019-02-10T03:00:12.723Z,1.50
2019-02-10T03:02:41.490Z,2.17
2019-02-10T03:05:10.282Z,1.50
2019-02-10T03:07:39.220Z,1.33
2019-02-10T03:10:08.143Z,1.50
2019-02-10T03:12:36.997Z,1.80
2019-02-10T03:15:06.175Z,1.27
2019-02-10T03:17:34.847Z,1.73
2019-02-10T03:20:03.638Z,1.60
2019-02-10T03:22:32.373Z,1.67
2019-02-10T03:25:01.388Z,1.80
2019-02-10T03:27:30.328Z,1.13
2019-02-10T03:29:59.275Z,1.03
2019-02-10T03:32:28.077Z,1.70
2019-02-10T03:34:56.896Z,1.10
2019-02-10T03:37:27.500Z,0.82
2019-02-10T03:39:56.706Z,1.10
2019-02-10T03:42:25.726Z,1.07
2019-02-10T03:44:54.430Z,0.97
2019-02-10T03:47:23.135Z,1.23
2019-02-10T03:49:51.900Z,1.70
2019-02-10T03:52:21.818Z,1.53
2019-02-10T03:54:50.491Z,1.00
2019-02-10T03:57:21.636Z,1.40
2019-02-10T03:59:50.395Z,1.23
2019-02-10T04:02:19.694Z,1.67
2019-02-10T04:04:48.414Z,0.93
2019-02-10T04:07:20.007Z,2.00
2019-02-10T04:09:48.760Z,1.17
2019-02-10T04:12:18.706Z,1.70
2019-02-10T04:14:47.403Z,1.42
2019-02-10T04:17:16.659Z,1.30
2019-02-10T04:19:45.392Z,1.03
2019-02-10T04:22:15.843Z,1.07
2019-02-10T04:24:45.145Z,1.47
2019-02-10T04:27:14.202Z,1.60
2019-02-10T04:29:42.876Z,1.60
2019-02-10T04:32:13.882Z,1.40
2019-02-10T04:34:45.250Z,1.70
2019-02-10T04:37:16.718Z,1.70
2019-02-10T04:39:45.739Z,1.93
2019-02-10T04:42:14.822Z,1.20
2019-02-10T04:44:43.515Z,0.97
2019-02-10T04:47:15.110Z,1.40
2019-02-10T04:49:44.422Z,0.85
2019-02-10T04:52:13.211Z,1.13
2019-02-10T04:54:42.262Z,1.27
2019-02-10T04:57:11.159Z,1.17
2019-02-10T04:59:39.882Z,1.53
2019-02-10T05:02:11.078Z,1.53
2019-02-10T05:04:42.429Z,0.97
2019-02-10T05:07:13.446Z,1.23
2019-02-10T05:09:42.178Z,0.83
2019-02-10T05:12:10.917Z,1.43
2019-02-10T05:14:39.616Z,1.07
2019-02-10T05:17:08.306Z,1.73
2019-02-10T05:19:37.022Z,1.13
2019-02-10T05:22:05.734Z,0.90
2019-02-10T05:24:34.431Z,1.27
2019-02-10T05:27:03.212Z,2.13
2019-02-10T05:29:31.907Z,1.90
2019-02-10T05:32:03.441Z,0.97
2019-02-10T05:34:32.496Z,1.83
2019-02-10T05:37:13.388Z,1.20
2019-02-10T05:39:42.147Z,1.10
2019-02-10T05:42:15.342Z,1.30
2019-02-10T05:44:44.043Z,0.80
2019-02-10T05:47:13.084Z,1.67
2019-02-10T05:49:42.312Z,1.37
2019-02-10T05:52:11.216Z,1.80
2019-02-10T05:54:40.796Z,1.30
2019-02-10T05:57:10.707Z,2.33
2019-02-10T05:59:39.389Z,1.23
2019-02-10T06:02:26.033Z,1.60
2019-02-10T06:04:55.243Z,1.20
2019-02-10T06:07:24.352Z,1.37
2019-02-10T06:09:53.459Z,1.20
2019-02-10T06:12:24.912Z,1.20
2019-02-10T06:14:56.516Z,1.50
2019-02-10T06:17:27.411Z,1.87
2019-02-10T06:19:56.358Z,1.30
2019-02-10T06:22:25.147Z,1.50
2019-02-10T06:24:53.874Z,1.27
2019-02-10T06:27:22.649Z,1.27
2019-02-10T06:29:51.859Z,0.90
2019-02-10T06:32:20.695Z,1.30
2019-02-10T06:34:49.483Z,1.50
2019-02-10T06:37:21.201Z,1.50
2019-02-10T06:39:50.250Z,2.03
2019-02-10T06:42:20.237Z,1.70
2019-02-10T06:44:49.203Z,1.60
2019-02-10T06:47:18.087Z,1.67
2019-02-10T06:49:47.178Z,1.23
2019-02-10T06:52:20.295Z,2.00
2019-02-10T06:54:55.058Z,0.87
2019-02-10T06:57:24.966Z,2.07
2019-02-10T07:00:22.353Z,1.50
2019-02-10T07:03:30.993Z,1.20
2019-02-10T07:05:59.877Z,1.17
2019-02-10T07:08:30.724Z,1.17
2019-02-10T07:10:59.123Z,1.10
2019-02-10T07:13:36.484Z,1.70
2019-02-10T07:16:48.439Z,1.60
2019-02-10T07:19:53.175Z,1.90
2019-02-10T07:23:02.311Z,1.70
2019-02-10T07:25:48.011Z,1.67
2019-02-10T07:29:10.469Z,1.87
2019-02-10T07:31:41.885Z,1.20
2019-02-10T07:34:37.866Z,1.57
2019-02-10T07:37:47.792Z,1.80
2019-02-10T07:41:06.575Z,1.13
2019-02-10T07:44:27.415Z,1.90
2019-02-10T07:47:12.567Z,1.73
2019-02-10T07:50:17.612Z,1.20
2019-02-10T07:53:06.240Z,1.70
2019-02-10T07:56:09.770Z,2.20
2019-02-10T07:59:12.190Z,1.57
2019-02-10T08:02:21.186Z,1.10
2019-02-10T08:05:20.381Z,1.43
2019-02-10T08:08:17.573Z,1.00
2019-02-10T08:11:21.118Z,2.20
2019-02-10T08:14:34.618Z,2.07
2019-02-10T08:17:25.843Z,1.70
2019-02-10T08:20:22.913Z,1.40
2019-02-10T08:23:13.024Z,1.90
2019-02-10T08:26:09.367Z,1.43
2019-02-10T08:29:24.163Z,1.62
2019-02-10T08:32:17.745Z,1.20
2019-02-10T08:35:12.050Z,1.93
2019-02-10T08:38:11.705Z,1.57
2019-02-10T08:41:18.694Z,1.53
2019-02-10T08:44:19.298Z,2.03
2019-02-10T08:47:16.556Z,1.77
2019-02-10T08:49:56.101Z,1.73
2019-02-10T08:52:35.956Z,1.60
2019-02-10T08:55:04.929Z,1.83
2019-02-10T08:57:33.719Z,1.10
2019-02-10T09:00:02.766Z,1.20
2019-02-10T09:02:31.718Z,1.63
2019-02-10T09:05:00.757Z,1.70
2019-02-10T09:07:29.640Z,1.13
2019-02-10T09:09:58.698Z,1.07
2019-02-10T09:12:27.394Z,1.30
2019-02-10T09:14:56.070Z,1.50
2019-02-10T09:17:24.819Z,0.90
2019-02-10T09:19:53.518Z,1.80
2019-02-10T09:22:25.597Z,1.73
2019-02-10T09:24:54.573Z,0.87
2019-02-10T09:27:23.524Z,1.30
2019-02-10T09:29:52.432Z,1.43
2019-02-10T09:32:21.199Z,0.93
2019-02-10T09:34:50.155Z,1.27
2019-02-10T09:37:20.886Z,1.47
2019-02-10T09:39:49.631Z,1.43
2019-02-10T09:42:21.593Z,1.33
2019-02-10T09:44:50.378Z,0.90
2019-02-10T09:47:21.994Z,1.53
2019-02-10T09:49:51.732Z,1.30
2019-02-10T09:52:20.763Z,1.80
2019-02-10T09:54:49.455Z,2.03
2019-02-10T09:57:22.106Z,2.37
2019-02-10T09:59:50.783Z,2.30
2019-02-10T10:02:23.535Z,1.87
2019-02-10T10:04:52.258Z,0.97
2019-02-10T10:07:23.184Z,2.30
2019-02-10T10:09:51.899Z,1.70
2019-02-10T10:12:22.847Z,1.90
2019-02-10T10:14:51.559Z,1.80
2019-02-10T10:17:20.538Z,1.87
2019-02-10T10:19:51.064Z,2.17
2019-02-10T10:22:23.576Z,2.00
2019-02-10T10:24:52.509Z,2.10
2019-02-10T10:27:22.538Z,1.23
2019-02-10T10:29:52.699Z,1.55
2019-02-10T10:32:24.842Z,1.23
2019-02-10T10:34:53.535Z,1.43
2019-02-10T10:37:22.959Z,1.43
2019-02-10T10:39:51.888Z,1.93
2019-02-10T10:42:22.490Z,2.03
2019-02-10T10:44:51.191Z,1.90
2019-02-10T10:47:22.552Z,1.65
2019-02-10T10:49:51.280Z,1.87
2019-02-10T10:52:20.071Z,1.47
2019-02-10T10:54:48.816Z,1.60
2019-02-10T10:57:17.618Z,1.47
2019-02-10T10:59:46.421Z,1.87
2019-02-10T11:02:18.180Z,1.13
2019-02-10T11:04:47.174Z,0.70
2019-02-10T11:07:15.993Z,1.10
2019-02-10T11:09:45.048Z,1.27
2019-02-10T11:12:15.558Z,1.63
2019-02-10T11:14:44.249Z,1.60
2019-02-10T11:17:13.073Z,2.20
2019-02-10T11:19:42.247Z,1.60
2019-02-10T11:22:13.998Z,1.47
2019-02-10T11:24:43.225Z,0.90
2019-02-10T11:27:14.097Z,2.30
2019-02-10T11:29:42.777Z,1.33
2019-02-10T11:32:11.537Z,1.37
2019-02-10T11:34:46.067Z,1.77
2019-02-10T11:37:13.967Z,1.00
2019-02-10T11:39:44.120Z,2.10
2019-02-10T11:42:15.368Z,1.53
2019-02-10T11:44:44.222Z,1.50
2019-02-10T11:47:13.108Z,1.87
2019-02-10T11:49:42.242Z,1.40
2019-02-10T11:52:13.715Z,0.83
2019-02-10T11:54:42.574Z,1.07
2019-02-10T11:57:21.756Z,1.80
2019-02-10T11:59:50.507Z,1.83
2019-02-10T12:02:20.892Z,1.90
2019-02-10T12:04:49.534Z,1.27
2019-02-10T12:07:18.322Z,1.20
2019-02-10T12:09:51.742Z,1.40
2019-02-10T12:12:18.955Z,0.83
2019-02-10T12:14:48.102Z,1.77
2019-02-10T12:17:17.046Z,1.33
2019-02-10T12:19:45.724Z,1.10
2019-02-10T12:22:14.507Z,1.63
2019-02-10T12:24:43.480Z,1.33
2019-02-10T12:27:12.334Z,1.10
2019-02-10T12:29:41.063Z,1.73
2019-02-10T12:32:13.595Z,1.37
2019-02-10T12:34:42.578Z,0.90
2019-02-10T12:37:11.625Z,1.20
2019-02-10T12:39:40.663Z,1.53
2019-02-10T12:42:09.562Z,2.13
2019-02-10T12:44:38.590Z,1.20
2019-02-10T12:47:09.174Z,1.40
2019-02-10T12:49:38.284Z,1.17
2019-02-10T12:52:07.607Z,1.20
2019-02-10T12:54:36.298Z,1.37
2019-02-10T12:57:09.359Z,1.40
2019-02-10T12:59:38.450Z,1.60
2019-02-10T13:02:08.232Z,1.43
2019-02-10T13:04:36.934Z,1.40
2019-02-10T13:07:05.631Z,1.30
2019-02-10T13:09:34.624Z,2.13
2019-02-10T13:12:03.650Z,1.40
2019-02-10T13:14:32.690Z,1.07
2019-02-10T13:17:01.687Z,1.40
2019-02-10T13:19:30.398Z,1.43
2019-02-10T13:21:59.074Z,1.43
2019-02-10T13:24:28.050Z,1.57
2019-02-10T13:26:56.772Z,1.70
2019-02-10T13:29:25.566Z,2.87
2019-02-10T13:31:54.267Z,1.43
2019-02-10T13:34:23.078Z,2.00
2019-02-10T13:36:54.899Z,1.77
2019-02-10T13:39:23.576Z,1.20
2019-02-10T13:41:51.074Z,1.40
2019-02-10T13:44:19.778Z,0.83
2019-02-10T13:46:48.442Z,1.10
2019-02-10T13:49:17.145Z,1.17
2019-02-10T13:51:46.127Z,1.50
2019-02-10T13:54:15.638Z,1.30
2019-02-10T13:56:44.497Z,1.33
2019-02-10T13:59:13.731Z,1.00
2019-02-10T14:01:42.470Z,1.23
2019-02-10T14:04:11.414Z,1.60
2019-02-10T14:06:40.095Z,1.30
2019-02-10T14:09:09.234Z,1.27
2019-02-10T14:11:37.930Z,1.33
2019-02-10T14:14:06.664Z,1.80
2019-02-10T14:16:35.507Z,1.30
2019-02-10T14:19:04.575Z,1.13
2019-02-10T14:21:33.274Z,1.47
2019-02-10T14:24:02.898Z,0.93
2019-02-10T14:26:31.823Z,1.63
2019-02-10T14:29:00.735Z,1.30
2019-02-10T14:31:29.448Z,1.47
2019-02-10T14:33:58.198Z,1.57
2019-02-10T14:36:27.127Z,1.80
2019-02-10T14:38:55.830Z,1.40
2019-02-10T14:41:24.576Z,1.73
2019-02-10T14:43:53.564Z,1.22
2019-02-10T14:46:22.507Z,1.67
2019-02-10T14:48:51.439Z,1.53
2019-02-10T14:51:20.315Z,1.20
2019-02-10T14:53:49.259Z,1.13
2019-02-10T14:56:18.225Z,1.40
2019-02-10T14:58:47.178Z,1.60
2019-02-10T15:01:15.888Z,1.37
2019-02-10T15:03:44.599Z,1.82
2019-02-10T15:06:13.271Z,1.77
2019-02-10T15:08:42.757Z,1.07
2019-02-10T15:11:11.519Z,1.33
2019-02-10T15:13:40.177Z,1.50
2019-02-10T15:16:08.870Z,1.73
2019-02-10T15:18:37.815Z,1.60
2019-02-10T15:21:06.539Z,1.40
2019-02-10T15:23:35.244Z,1.50
2019-02-10T15:26:03.980Z,1.03
2019-02-10T15:28:32.986Z,1.30
2019-02-10T15:31:04.342Z,1.60
2019-02-10T15:33:33.039Z,1.47
2019-02-10T15:36:01.731Z,1.30
2019-02-10T15:38:30.399Z,1.20
2019-02-10T15:40:59.153Z,1.90
2019-02-10T15:43:28.146Z,1.60
2019-02-10T15:45:56.830Z,1.97
2019-02-10T15:48:25.562Z,1.40
2019-02-10T15:50:54.265Z,1.60
2019-02-10T15:53:22.985Z,1.73
2019-02-10T15:55:51.751Z,1.50
2019-02-10T15:58:21.574Z,1.40
2019-02-10T16:00:50.539Z,1.30
2019-02-10T16:03:19.237Z,1.50
2019-02-10T16:05:47.904Z,1.50
2019-02-10T16:08:16.610Z,1.50
2019-02-10T16:10:45.881Z,1.33
2019-02-10T16:13:14.530Z,1.47
2019-02-10T16:15:43.216Z,1.60
2019-02-10T16:18:12.456Z,1.47
2019-02-10T16:20:41.651Z,1.98
2019-02-10T16:23:10.590Z,1.83
2019-02-10T16:25:40.881Z,1.83
2019-02-10T16:28:09.779Z,1.50
2019-02-10T16:30:38.468Z,2.13
2019-02-10T16:33:07.391Z,1.93
2019-02-10T16:35:36.459Z,1.10
2019-02-10T16:38:05.146Z,1.60
2019-02-10T16:40:34.147Z,1.43
2019-02-10T16:43:02.843Z,1.60
2019-02-10T16:45:31.526Z,1.00
2019-02-10T16:48:00.294Z,1.70
2019-02-10T16:50:29.004Z,1.67
2019-02-10T16:52:58.228Z,1.73
2019-02-10T16:55:28.380Z,1.83
2019-02-10T16:57:57.075Z,1.63
2019-02-10T17:00:30.002Z,1.87
2019-02-10T17:02:58.943Z,1.83
2019-02-10T17:05:27.680Z,1.50
2019-02-10T17:07:56.674Z,2.20
2019-02-10T17:10:25.630Z,2.03
2019-02-10T17:12:54.330Z,1.70
2019-02-10T17:15:23.004Z,1.80
2019-02-10T17:17:51.710Z,1.97
2019-02-10T17:20:20.648Z,1.70
2019-02-10T17:22:49.967Z,1.60
2019-02-10T17:25:18.755Z,1.23
2019-02-10T17:27:47.663Z,1.67
2019-02-10T17:30:16.742Z,1.90
2019-02-10T17:32:45.456Z,2.00
2019-02-10T17:35:14.478Z,1.97
2019-02-10T17:37:43.219Z,1.53
2019-02-10T17:40:19.178Z,1.93
2019-02-10T17:42:48.138Z,1.20
2019-02-10T17:45:16.980Z,1.53
2019-02-10T17:47:45.904Z,1.40
2019-02-10T17:50:14.563Z,1.40
2019-02-10T17:52:43.266Z,1.10
2019-02-10T17:55:12.495Z,1.60
2019-02-10T17:57:41.202Z,1.40
2019-02-10T18:00:10.677Z,1.57
2019-02-10T18:02:39.593Z,1.27
2019-02-10T18:05:09.279Z,1.00
2019-02-10T18:07:38.000Z,1.73
2019-02-10T18:10:07.776Z,1.60
2019-02-10T18:12:36.443Z,1.50
2019-02-10T18:15:29.007Z,1.53
2019-02-10T18:18:16.875Z,1.07
2019-02-10T18:21:03.435Z,1.40
2019-02-10T18:23:50.280Z,1.30
2019-02-10T18:26:43.486Z,1.20
2019-02-10T18:29:36.547Z,1.10
2019-02-10T18:32:22.326Z,1.37
2019-02-10T18:34:58.190Z,1.40
2019-02-10T18:37:40.130Z,1.37
2019-02-10T18:40:27.710Z,1.23
2019-02-10T18:43:18.327Z,1.50
2019-02-10T18:45:58.356Z,2.10
2019-02-10T18:48:44.722Z,1.53
2019-02-10T18:51:38.628Z,1.30
2019-02-10T18:54:15.242Z,1.60
2019-02-10T18:57:02.409Z,1.52
2019-02-10T18:59:41.226Z,1.57
2019-02-10T19:02:20.451Z,1.40
2019-02-10T19:05:03.097Z,1.50
2019-02-10T19:07:56.867Z,1.97
2019-02-10T19:10:42.650Z,1.77
2019-02-10T19:13:18.392Z,1.70
2019-02-10T19:15:53.782Z,1.43
2019-02-10T19:18:31.015Z,1.40
2019-02-10T19:21:06.414Z,1.20
2019-02-10T19:24:03.240Z,1.00
2019-02-10T19:26:49.749Z,0.97
2019-02-10T19:29:45.675Z,1.20
2019-02-10T19:32:51.813Z,1.50
2019-02-10T19:35:51.830Z,1.40
2019-02-10T19:38:38.067Z,0.90
2019-02-10T19:41:40.963Z,1.40
2019-02-10T19:44:29.093Z,1.33
2019-02-10T19:47:14.894Z,1.20
2019-02-10T19:49:50.258Z,1.20
2019-02-10T19:52:27.221Z,1.00
2019-02-10T19:55:30.356Z,1.10
2019-02-10T19:58:17.550Z,1.10
2019-02-10T20:01:03.985Z,1.40
2019-02-10T20:03:46.302Z,1.02
2019-02-10T20:06:33.270Z,0.90
2019-02-10T20:09:21.439Z,1.23
2019-02-10T20:12:04.469Z,1.03
2019-02-10T20:14:44.871Z,1.05
2019-02-10T20:17:31.445Z,1.30
2019-02-10T20:20:20.003Z,1.67
2019-02-10T20:22:55.248Z,1.13
2019-02-10T20:25:36.928Z,1.23
2019-02-10T20:28:17.415Z,1.00
2019-02-10T20:31:08.266Z,1.03
2019-02-10T20:34:05.170Z,1.07
2019-02-10T20:36:56.363Z,1.10
2019-02-10T20:39:34.096Z,0.87
2019-02-10T20:42:12.631Z,1.03
2019-02-10T20:44:52.383Z,1.03
2019-02-10T20:47:33.475Z,0.60
2019-02-10T20:50:14.788Z,0.73
2019-02-10T20:53:05.601Z,0.40
2019-02-10T20:56:08.907Z,0.70
2019-02-10T20:59:02.584Z,0.60
2019-02-10T21:01:54.319Z,1.00
2019-02-10T21:04:57.313Z,0.83
2019-02-10T21:07:43.734Z,0.57
2019-02-10T21:10:36.015Z,0.70
2019-02-10T21:13:17.262Z,0.77
2019-02-10T21:15:52.938Z,0.80
2019-02-10T21:18:42.255Z,0.70
2019-02-10T21:21:19.549Z,0.60
2019-02-10T21:24:07.385Z,0.47
2019-02-10T21:26:53.998Z,0.53
2019-02-10T21:29:38.298Z,0.60
2019-02-10T21:32:28.353Z,0.70
2019-02-10T21:35:11.786Z,0.60
2019-02-10T21:37:49.579Z,0.60
2019-02-10T21:40:24.921Z,0.30
2019-02-10T21:43:11.598Z,0.67
2019-02-10T21:45:52.104Z,0.30
2019-02-10T21:48:43.039Z,0.60
2019-02-10T21:51:11.762Z,0.40
2019-02-10T21:53:40.453Z,0.20
2019-02-10T21:56:09.129Z,0.60
2019-02-10T21:58:37.860Z,0.47
2019-02-10T22:01:06.535Z,0.70
2019-02-10T22:03:35.246Z,0.60
2019-02-10T22:06:04.002Z,0.63
2019-02-10T22:08:32.758Z,0.70
2019-02-10T22:11:01.499Z,0.60
2019-02-10T22:13:30.426Z,0.40
2019-02-10T22:15:59.114Z,0.83
2019-02-10T22:18:27.891Z,0.60
2019-02-10T22:20:56.876Z,0.40
2019-02-10T22:23:25.593Z,0.47
2019-02-10T22:25:54.268Z,0.23
2019-02-10T22:28:23.202Z,0.33
2019-02-10T22:30:51.875Z,0.17
2019-02-10T22:33:21.062Z,0.17
2019-02-10T22:35:49.771Z,0.40
2019-02-10T22:38:18.413Z,0.20
2019-02-10T22:40:47.079Z,0.43
2019-02-10T22:43:15.923Z,0.27
2019-02-10T22:45:44.883Z,0.43
2019-02-10T22:48:13.771Z,0.10
2019-02-10T22:50:43.043Z,0.27
2019-02-10T22:53:14.122Z,0.40
2019-02-10T22:55:43.043Z,0.30
2019-02-10T22:58:11.787Z,0.20
2019-02-10T23:00:49.579Z,0.50
2019-02-10T23:03:18.266Z,0.37
2019-02-10T23:05:46.959Z,0.10
2019-02-10T23:08:15.926Z,0.10
2019-02-10T23:10:44.690Z,0.00
2019-02-10T23:13:13.522Z,0.20
2019-02-10T23:15:42.254Z,0.20
2019-02-10T23:18:10.973Z,0.30
2019-02-10T23:20:39.662Z,0.20
2019-02-10T23:23:08.331Z,0.10
2019-02-10T23:25:37.013Z,0.10
2019-02-10T23:28:05.843Z,0.20
2019-02-10T23:30:34.637Z,0.10
2019-02-10T23:33:03.355Z,0.50
2019-02-10T23:35:33.385Z,0.20
2019-02-10T23:38:02.258Z,0.47
2019-02-10T23:40:31.351Z,0.37
2019-02-10T23:43:02.096Z,0.80
2019-02-10T23:45:31.180Z,0.20
2019-02-10T23:47:59.901Z,0.33
2019-02-10T23:50:28.576Z,0.33
2019-02-10T23:52:57.546Z,0.30
2019-02-10T23:55:26.507Z,0.60
2019-02-10T23:57:55.683Z,0.23
